sensor_id;sensor_type;location;lat;lon;timestamp;P1;durP1;ratioP1;P2;durP2;ratioP2
21657;SDS011;10990;48.174;9.782;2023-12-14T00:00:38;0.60;;;0.60;;
21657;SDS011;10990;48.174;9.782;2023-12-14T00:03:06;0.60;;;0.60;;
21657;SDS011;10990;48.174;9.782;2023-12-14T00:05:32;2.23;;;0.70;;
21657;SDS011;10990;48.174;9.782;2023-12-14T00:07:58;1.97;;;0.60;;
21657;SDS011;10990;48.174;9.782;2023-12-14T00:10:24;1.03;;;0.70;;
21657;SDS011;10990;48.174;9.782;2023-12-14T00:12:50;1.17;;;0.70;;
21657;SDS011;10990;48.174;9.782;2023-12-14T00:15:16;1.20;;;0.83;;
21657;SDS011;10990;48.174;9.782;2023-12-14T00:17:42;1.77;;;0.80;;
21657;SDS011;10990;48.174;9.782;2023-12-14T00:20:11;2.30;;;0.70;;
21657;SDS011;10990;48.174;9.782;2023-12-14T00:22:37;1.50;;;0.70;;
21657;SDS011;10990;48.174;9.782;2023-12-14T00:25:03;1.17;;;0.77;;
21657;SDS011;10990;48.174;9.782;2023-12-14T00:27:30;0.80;;;0.70;;
21657;SDS011;10990;48.174;9.782;2023-12-14T00:29:56;0.50;;;0.50;;
21657;SDS011;10990;48.174;9.782;2023-12-14T00:32:22;1.37;;;0.70;;
21657;SDS011;10990;48.174;9.782;2023-12-14T00:34:47;1.73;;;0.53;;
21657;SDS011;10990;48.174;9.782;2023-12-14T00:37:16;0.70;;;0.70;;
21657;SDS011;10990;48.174;9.782;2023-12-14T00:39:42;1.10;;;0.50;;
21657;SDS011;10990;48.174;9.782;2023-12-14T00:42:08;0.50;;;0.50;;
21657;SDS011;10990;48.174;9.782;2023-12-14T00:44:33;0.60;;;0.60;;
21657;SDS011;10990;48.174;9.782;2023-12-14T00:46:59;1.33;;;0.90;;
21657;SDS011;10990;48.174;9.782;2023-12-14T00:49:25;2.30;;;0.80;;
21657;SDS011;10990;48.174;9.782;2023-12-14T00:51:51;2.13;;;0.80;;
21657;SDS011;10990;48.174;9.782;2023-12-14T00:54:20;1.27;;;0.70;;
21657;SDS011;10990;48.174;9.782;2023-12-14T00:56:45;1.80;;;0.70;;
21657;SDS011;10990;48.174;9.782;2023-12-14T00:59:11;0.93;;;0.70;;
21657;SDS011;10990;48.174;9.782;2023-12-14T01:01:37;1.27;;;0.77;;
21657;SDS011;10990;48.174;9.782;2023-12-14T01:04:03;1.37;;;0.70;;
21657;SDS011;10990;48.174;9.782;2023-12-14T01:06:29;0.70;;;0.70;;
21657;SDS011;10990;48.174;9.782;2023-12-14T01:08:55;1.70;;;0.70;;
21657;SDS011;10990;48.174;9.782;2023-12-14T01:11:23;2.30;;;0.67;;
21657;SDS011;10990;48.174;9.782;2023-12-14T01:13:49;0.60;;;0.60;;
21657;SDS011;10990;48.174;9.782;2023-12-14T01:16:15;0.60;;;0.60;;
21657;SDS011;10990;48.174;9.782;2023-12-14T01:18:41;2.50;;;0.80;;
21657;SDS011;10990;48.174;9.782;2023-12-14T01:21:07;2.07;;;0.60;;
21657;SDS011;10990;48.174;9.782;2023-12-14T01:23:33;0.60;;;0.60;;
21657;SDS011;10990;48.174;9.782;2023-12-14T01:25:59;0.50;;;0.47;;
21657;SDS011;10990;48.174;9.782;2023-12-14T01:28:27;0.50;;;0.50;;
21657;SDS011;10990;48.174;9.782;2023-12-14T01:30:53;0.63;;;0.63;;
21657;SDS011;10990;48.174;9.782;2023-12-14T01:33:19;1.37;;;0.50;;
21657;SDS011;10990;48.174;9.782;2023-12-14T01:35:45;0.70;;;0.70;;
21657;SDS011;10990;48.174;9.782;2023-12-14T01:38:11;0.87;;;0.73;;
21657;SDS011;10990;48.174;9.782;2023-12-14T01:40:37;0.77;;;0.70;;
21657;SDS011;10990;48.174;9.782;2023-12-14T01:43:06;0.93;;;0.80;;
21657;SDS011;10990;48.174;9.782;2023-12-14T01:45:35;1.43;;;0.80;;
21657;SDS011;10990;48.174;9.782;2023-12-14T01:48:01;1.00;;;0.77;;
21657;SDS011;10990;48.174;9.782;2023-12-14T01:50:27;0.80;;;0.70;;
21657;SDS011;10990;48.174;9.782;2023-12-14T01:52:53;3.07;;;0.90;;
21657;SDS011;10990;48.174;9.782;2023-12-14T01:55:19;1.27;;;0.80;;
21657;SDS011;10990;48.174;9.782;2023-12-14T01:57:45;0.63;;;0.63;;
21657;SDS011;10990;48.174;9.782;2023-12-14T02:00:13;1.03;;;0.60;;
21657;SDS011;10990;48.174;9.782;2023-12-14T02:02:50;0.90;;;0.90;;
21657;SDS011;10990;48.174;9.782;2023-12-14T02:05:16;2.13;;;0.70;;
21657;SDS011;10990;48.174;9.782;2023-12-14T02:07:42;1.00;;;0.73;;
21657;SDS011;10990;48.174;9.782;2023-12-14T02:10:08;1.07;;;0.90;;
21657;SDS011;10990;48.174;9.782;2023-12-14T02:12:34;3.23;;;1.10;;
21657;SDS011;10990;48.174;9.782;2023-12-14T02:15:00;1.10;;;1.00;;
21657;SDS011;10990;48.174;9.782;2023-12-14T02:17:28;1.17;;;1.07;;
21657;SDS011;10990;48.174;9.782;2023-12-14T02:19:57;1.27;;;1.17;;
21657;SDS011;10990;48.174;9.782;2023-12-14T02:22:23;1.47;;;1.10;;
21657;SDS011;10990;48.174;9.782;2023-12-14T02:24:53;1.37;;;1.20;;
21657;SDS011;10990;48.174;9.782;2023-12-14T02:27:19;1.80;;;1.40;;
21657;SDS011;10990;48.174;9.782;2023-12-14T02:29:45;2.73;;;1.37;;
21657;SDS011;10990;48.174;9.782;2023-12-14T02:32:11;1.97;;;1.73;;
21657;SDS011;10990;48.174;9.782;2023-12-14T02:34:37;2.23;;;1.67;;
21657;SDS011;10990;48.174;9.782;2023-12-14T02:37:03;3.40;;;1.93;;
21657;SDS011;10990;48.174;9.782;2023-12-14T02:39:29;3.17;;;2.00;;
21657;SDS011;10990;48.174;9.782;2023-12-14T02:41:57;4.60;;;2.00;;
21657;SDS011;10990;48.174;9.782;2023-12-14T02:44:23;3.87;;;1.70;;
21657;SDS011;10990;48.174;9.782;2023-12-14T02:46:49;2.00;;;1.73;;
21657;SDS011;10990;48.174;9.782;2023-12-14T02:49:15;2.67;;;2.30;;
21657;SDS011;10990;48.174;9.782;2023-12-14T02:51:41;3.17;;;2.20;;
21657;SDS011;10990;48.174;9.782;2023-12-14T02:54:07;4.10;;;3.27;;
21657;SDS011;10990;48.174;9.782;2023-12-14T02:56:33;4.13;;;2.97;;
21657;SDS011;10990;48.174;9.782;2023-12-14T02:59:02;4.97;;;3.30;;
21657;SDS011;10990;48.174;9.782;2023-12-14T03:01:28;4.17;;;3.37;;
21657;SDS011;10990;48.174;9.782;2023-12-14T03:03:54;5.20;;;3.90;;
21657;SDS011;10990;48.174;9.782;2023-12-14T03:06:20;6.63;;;4.20;;
21657;SDS011;10990;48.174;9.782;2023-12-14T03:08:46;5.97;;;3.93;;
21657;SDS011;10990;48.174;9.782;2023-12-14T03:11:20;6.77;;;4.40;;
21657;SDS011;10990;48.174;9.782;2023-12-14T03:13:46;6.53;;;4.57;;
21657;SDS011;10990;48.174;9.782;2023-12-14T03:16:15;6.70;;;4.90;;
21657;SDS011;10990;48.174;9.782;2023-12-14T03:18:41;7.93;;;5.60;;
21657;SDS011;10990;48.174;9.782;2023-12-14T03:21:07;8.03;;;5.20;;
21657;SDS011;10990;48.174;9.782;2023-12-14T03:23:33;8.03;;;5.50;;
21657;SDS011;10990;48.174;9.782;2023-12-14T03:25:58;6.97;;;5.10;;
21657;SDS011;10990;48.174;9.782;2023-12-14T03:28:24;8.13;;;5.80;;
21657;SDS011;10990;48.174;9.782;2023-12-14T03:30:50;9.13;;;5.97;;
21657;SDS011;10990;48.174;9.782;2023-12-14T03:33:19;10.37;;;6.00;;
21657;SDS011;10990;48.174;9.782;2023-12-14T03:35:45;10.13;;;5.97;;
21657;SDS011;10990;48.174;9.782;2023-12-14T03:38:11;8.70;;;6.30;;
21657;SDS011;10990;48.174;9.782;2023-12-14T03:40:37;11.03;;;6.37;;
21657;SDS011;10990;48.174;9.782;2023-12-14T03:43:02;11.10;;;6.60;;
21657;SDS011;10990;48.174;9.782;2023-12-14T03:45:28;10.43;;;7.07;;
21657;SDS011;10990;48.174;9.782;2023-12-14T03:47:54;12.23;;;6.97;;
21657;SDS011;10990;48.174;9.782;2023-12-14T03:50:23;12.20;;;7.73;;
21657;SDS011;10990;48.174;9.782;2023-12-14T03:52:49;13.37;;;7.87;;
21657;SDS011;10990;48.174;9.782;2023-12-14T03:55:15;14.07;;;8.50;;
21657;SDS011;10990;48.174;9.782;2023-12-14T03:57:41;14.83;;;8.77;;
21657;SDS011;10990;48.174;9.782;2023-12-14T04:00:09;13.70;;;8.30;;
21657;SDS011;10990;48.174;9.782;2023-12-14T04:02:35;13.23;;;8.60;;
21657;SDS011;10990;48.174;9.782;2023-12-14T04:05:03;13.10;;;8.33;;
21657;SDS011;10990;48.174;9.782;2023-12-14T04:07:32;14.87;;;8.17;;
21657;SDS011;10990;48.174;9.782;2023-12-14T04:09:58;12.90;;;8.00;;
21657;SDS011;10990;48.174;9.782;2023-12-14T04:12:24;14.90;;;8.47;;
21657;SDS011;10990;48.174;9.782;2023-12-14T04:14:50;12.97;;;8.23;;
21657;SDS011;10990;48.174;9.782;2023-12-14T04:17:16;14.23;;;8.40;;
21657;SDS011;10990;48.174;9.782;2023-12-14T04:19:42;13.53;;;8.63;;
21657;SDS011;10990;48.174;9.782;2023-12-14T04:22:08;14.77;;;8.93;;
21657;SDS011;10990;48.174;9.782;2023-12-14T04:24:36;16.60;;;9.90;;
21657;SDS011;10990;48.174;9.782;2023-12-14T04:27:02;14.80;;;9.63;;
21657;SDS011;10990;48.174;9.782;2023-12-14T04:29:29;14.20;;;9.03;;
21657;SDS011;10990;48.174;9.782;2023-12-14T04:31:55;14.43;;;9.27;;
21657;SDS011;10990;48.174;9.782;2023-12-14T04:34:21;14.57;;;9.77;;
21657;SDS011;10990;48.174;9.782;2023-12-14T04:36:47;12.70;;;8.37;;
21657;SDS011;10990;48.174;9.782;2023-12-14T04:39:14;15.90;;;9.37;;
21657;SDS011;10990;48.174;9.782;2023-12-14T04:41:42;12.90;;;8.30;;
21657;SDS011;10990;48.174;9.782;2023-12-14T04:44:08;12.37;;;8.10;;
21657;SDS011;10990;48.174;9.782;2023-12-14T04:46:34;11.47;;;7.60;;
21657;SDS011;10990;48.174;9.782;2023-12-14T04:49:01;12.70;;;8.37;;
21657;SDS011;10990;48.174;9.782;2023-12-14T04:51:28;12.73;;;8.10;;
21657;SDS011;10990;48.174;9.782;2023-12-14T04:53:54;12.10;;;7.40;;
21657;SDS011;10990;48.174;9.782;2023-12-14T04:56:20;11.73;;;7.37;;
21657;SDS011;10990;48.174;9.782;2023-12-14T04:58:49;9.67;;;6.57;;
21657;SDS011;10990;48.174;9.782;2023-12-14T05:01:15;9.93;;;7.20;;
21657;SDS011;10990;48.174;9.782;2023-12-14T05:03:41;11.20;;;7.10;;
21657;SDS011;10990;48.174;9.782;2023-12-14T05:06:07;10.50;;;7.07;;
21657;SDS011;10990;48.174;9.782;2023-12-14T05:08:33;11.47;;;7.23;;
21657;SDS011;10990;48.174;9.782;2023-12-14T05:10:59;11.70;;;6.67;;
21657;SDS011;10990;48.174;9.782;2023-12-14T05:13:25;10.23;;;7.03;;
21657;SDS011;10990;48.174;9.782;2023-12-14T05:15:53;11.07;;;7.17;;
21657;SDS011;10990;48.174;9.782;2023-12-14T05:18:19;11.03;;;7.00;;
21657;SDS011;10990;48.174;9.782;2023-12-14T05:20:45;11.63;;;7.17;;
21657;SDS011;10990;48.174;9.782;2023-12-14T05:23:12;11.60;;;7.80;;
21657;SDS011;10990;48.174;9.782;2023-12-14T05:25:38;10.33;;;7.20;;
21657;SDS011;10990;48.174;9.782;2023-12-14T05:28:04;10.17;;;6.77;;
21657;SDS011;10990;48.174;9.782;2023-12-14T05:30:30;9.93;;;6.80;;
21657;SDS011;10990;48.174;9.782;2023-12-14T05:32:58;8.53;;;6.20;;
21657;SDS011;10990;48.174;9.782;2023-12-14T05:35:24;7.67;;;5.70;;
21657;SDS011;10990;48.174;9.782;2023-12-14T05:37:50;9.40;;;6.10;;
21657;SDS011;10990;48.174;9.782;2023-12-14T05:40:17;8.77;;;5.63;;
21657;SDS011;10990;48.174;9.782;2023-12-14T05:42:43;9.20;;;5.73;;
21657;SDS011;10990;48.174;9.782;2023-12-14T05:45:09;8.70;;;5.37;;
21657;SDS011;10990;48.174;9.782;2023-12-14T05:47:36;8.73;;;5.40;;
21657;SDS011;10990;48.174;9.782;2023-12-14T05:50:05;8.17;;;5.43;;
21657;SDS011;10990;48.174;9.782;2023-12-14T05:52:31;7.93;;;5.37;;
21657;SDS011;10990;48.174;9.782;2023-12-14T05:54:57;9.10;;;5.33;;
21657;SDS011;10990;48.174;9.782;2023-12-14T05:57:23;7.40;;;5.23;;
21657;SDS011;10990;48.174;9.782;2023-12-14T05:59:49;6.50;;;4.80;;
21657;SDS011;10990;48.174;9.782;2023-12-14T06:02:15;8.60;;;5.60;;
21657;SDS011;10990;48.174;9.782;2023-12-14T06:04:41;8.00;;;5.37;;
21657;SDS011;10990;48.174;9.782;2023-12-14T06:07:10;7.77;;;5.30;;
21657;SDS011;10990;48.174;9.782;2023-12-14T06:09:36;7.97;;;5.60;;
21657;SDS011;10990;48.174;9.782;2023-12-14T06:12:02;6.97;;;4.97;;
21657;SDS011;10990;48.174;9.782;2023-12-14T06:14:29;8.33;;;5.50;;
21657;SDS011;10990;48.174;9.782;2023-12-14T06:16:56;8.77;;;6.03;;
21657;SDS011;10990;48.174;9.782;2023-12-14T06:19:22;8.57;;;5.80;;
21657;SDS011;10990;48.174;9.782;2023-12-14T06:21:48;9.77;;;6.13;;
21657;SDS011;10990;48.174;9.782;2023-12-14T06:24:16;9.17;;;6.53;;
21657;SDS011;10990;48.174;9.782;2023-12-14T06:26:42;9.53;;;6.20;;
21657;SDS011;10990;48.174;9.782;2023-12-14T06:29:09;9.30;;;6.60;;
21657;SDS011;10990;48.174;9.782;2023-12-14T06:31:35;11.07;;;6.20;;
21657;SDS011;10990;48.174;9.782;2023-12-14T06:34:01;11.57;;;6.83;;
21657;SDS011;10990;48.174;9.782;2023-12-14T06:36:27;10.60;;;7.00;;
21657;SDS011;10990;48.174;9.782;2023-12-14T06:38:53;11.20;;;7.50;;
21657;SDS011;10990;48.174;9.782;2023-12-14T06:41:22;11.10;;;7.23;;
21657;SDS011;10990;48.174;9.782;2023-12-14T06:43:49;11.37;;;7.10;;
21657;SDS011;10990;48.174;9.782;2023-12-14T06:46:15;11.13;;;7.40;;
21657;SDS011;10990;48.174;9.782;2023-12-14T06:48:41;10.93;;;6.80;;
21657;SDS011;10990;48.174;9.782;2023-12-14T06:51:07;11.77;;;7.60;;
21657;SDS011;10990;48.174;9.782;2023-12-14T06:53:34;13.87;;;8.00;;
21657;SDS011;10990;48.174;9.782;2023-12-14T06:56:00;10.67;;;6.93;;
21657;SDS011;10990;48.174;9.782;2023-12-14T06:58:29;11.30;;;7.23;;
21657;SDS011;10990;48.174;9.782;2023-12-14T07:00:54;12.30;;;7.40;;
21657;SDS011;10990;48.174;9.782;2023-12-14T07:03:20;10.80;;;7.33;;
21657;SDS011;10990;48.174;9.782;2023-12-14T07:05:46;11.07;;;7.33;;
21657;SDS011;10990;48.174;9.782;2023-12-14T07:08:12;11.53;;;6.50;;
21657;SDS011;10990;48.174;9.782;2023-12-14T07:10:40;9.80;;;6.50;;
21657;SDS011;10990;48.174;9.782;2023-12-14T07:13:06;9.50;;;6.43;;
21657;SDS011;10990;48.174;9.782;2023-12-14T07:15:35;9.90;;;6.27;;
21657;SDS011;10990;48.174;9.782;2023-12-14T07:18:02;10.93;;;6.60;;
21657;SDS011;10990;48.174;9.782;2023-12-14T07:20:28;9.27;;;6.27;;
21657;SDS011;10990;48.174;9.782;2023-12-14T07:22:54;8.87;;;5.53;;
21657;SDS011;10990;48.174;9.782;2023-12-14T07:25:20;10.03;;;6.50;;
21657;SDS011;10990;48.174;9.782;2023-12-14T07:27:46;8.40;;;6.00;;
21657;SDS011;10990;48.174;9.782;2023-12-14T07:30:12;10.40;;;6.50;;
21657;SDS011;10990;48.174;9.782;2023-12-14T07:32:41;10.97;;;6.83;;
21657;SDS011;10990;48.174;9.782;2023-12-14T07:35:07;9.27;;;5.93;;
21657;SDS011;10990;48.174;9.782;2023-12-14T07:37:33;9.00;;;5.97;;
21657;SDS011;10990;48.174;9.782;2023-12-14T07:39:59;10.07;;;6.03;;
21657;SDS011;10990;48.174;9.782;2023-12-14T07:42:25;11.00;;;6.27;;
21657;SDS011;10990;48.174;9.782;2023-12-14T07:44:51;9.33;;;6.07;;
21657;SDS011;10990;48.174;9.782;2023-12-14T07:47:17;11.47;;;6.60;;
21657;SDS011;10990;48.174;9.782;2023-12-14T07:49:46;11.30;;;6.77;;
21657;SDS011;10990;48.174;9.782;2023-12-14T07:52:12;10.97;;;6.53;;
21657;SDS011;10990;48.174;9.782;2023-12-14T07:54:38;11.57;;;7.13;;
21657;SDS011;10990;48.174;9.782;2023-12-14T07:57:04;12.43;;;7.80;;
21657;SDS011;10990;48.174;9.782;2023-12-14T07:59:30;12.60;;;7.63;;
21657;SDS011;10990;48.174;9.782;2023-12-14T08:01:56;12.20;;;7.60;;
21657;SDS011;10990;48.174;9.782;2023-12-14T08:04:22;12.20;;;7.83;;
21657;SDS011;10990;48.174;9.782;2023-12-14T08:06:51;13.63;;;8.30;;
21657;SDS011;10990;48.174;9.782;2023-12-14T08:09:17;13.93;;;8.33;;
21657;SDS011;10990;48.174;9.782;2023-12-14T08:11:43;12.70;;;7.90;;
21657;SDS011;10990;48.174;9.782;2023-12-14T08:14:09;12.80;;;7.67;;
21657;SDS011;10990;48.174;9.782;2023-12-14T08:16:35;12.30;;;7.60;;
21657;SDS011;10990;48.174;9.782;2023-12-14T08:19:01;12.77;;;8.67;;
21657;SDS011;10990;48.174;9.782;2023-12-14T08:21:27;12.63;;;7.73;;
21657;SDS011;10990;48.174;9.782;2023-12-14T08:23:55;11.97;;;7.47;;
21657;SDS011;10990;48.174;9.782;2023-12-14T08:26:21;12.37;;;8.00;;
21657;SDS011;10990;48.174;9.782;2023-12-14T08:28:47;11.07;;;7.07;;
21657;SDS011;10990;48.174;9.782;2023-12-14T08:31:13;11.67;;;7.87;;
21657;SDS011;10990;48.174;9.782;2023-12-14T08:33:40;11.67;;;7.30;;
21657;SDS011;10990;48.174;9.782;2023-12-14T08:36:07;11.00;;;6.77;;
21657;SDS011;10990;48.174;9.782;2023-12-14T08:38:33;11.60;;;7.00;;
21657;SDS011;10990;48.174;9.782;2023-12-14T08:41:02;10.93;;;6.47;;
21657;SDS011;10990;48.174;9.782;2023-12-14T08:43:28;11.03;;;7.20;;
21657;SDS011;10990;48.174;9.782;2023-12-14T08:45:54;9.90;;;6.47;;
21657;SDS011;10990;48.174;9.782;2023-12-14T08:48:20;12.03;;;7.00;;
21657;SDS011;10990;48.174;9.782;2023-12-14T08:50:46;10.80;;;7.23;;
21657;SDS011;10990;48.174;9.782;2023-12-14T08:53:12;11.63;;;7.37;;
21657;SDS011;10990;48.174;9.782;2023-12-14T08:55:38;10.73;;;7.10;;
21657;SDS011;10990;48.174;9.782;2023-12-14T08:58:07;10.47;;;6.97;;
21657;SDS011;10990;48.174;9.782;2023-12-14T09:00:33;11.00;;;7.43;;
21657;SDS011;10990;48.174;9.782;2023-12-14T09:02:59;11.13;;;7.50;;
21657;SDS011;10990;48.174;9.782;2023-12-14T09:05:25;10.97;;;7.23;;
21657;SDS011;10990;48.174;9.782;2023-12-14T09:07:51;12.47;;;7.80;;
21657;SDS011;10990;48.174;9.782;2023-12-14T09:10:17;11.60;;;7.50;;
21657;SDS011;10990;48.174;9.782;2023-12-14T09:12:43;10.67;;;6.97;;
21657;SDS011;10990;48.174;9.782;2023-12-14T09:15:12;10.17;;;7.10;;
21657;SDS011;10990;48.174;9.782;2023-12-14T09:17:38;9.53;;;6.67;;
21657;SDS011;10990;48.174;9.782;2023-12-14T09:20:04;12.37;;;7.00;;
21657;SDS011;10990;48.174;9.782;2023-12-14T09:22:31;8.77;;;6.50;;
21657;SDS011;10990;48.174;9.782;2023-12-14T09:24:57;10.97;;;7.80;;
21657;SDS011;10990;48.174;9.782;2023-12-14T09:27:23;10.20;;;6.63;;
21657;SDS011;10990;48.174;9.782;2023-12-14T09:29:49;9.90;;;6.87;;
21657;SDS011;10990;48.174;9.782;2023-12-14T09:32:18;13.03;;;7.80;;
21657;SDS011;10990;48.174;9.782;2023-12-14T09:34:47;10.33;;;6.67;;
21657;SDS011;10990;48.174;9.782;2023-12-14T09:37:13;10.23;;;7.40;;
21657;SDS011;10990;48.174;9.782;2023-12-14T09:39:39;9.07;;;6.60;;
21657;SDS011;10990;48.174;9.782;2023-12-14T09:42:05;10.60;;;7.00;;
21657;SDS011;10990;48.174;9.782;2023-12-14T09:44:32;9.70;;;6.40;;
21657;SDS011;10990;48.174;9.782;2023-12-14T09:47:00;9.47;;;5.97;;
21657;SDS011;10990;48.174;9.782;2023-12-14T09:49:29;7.30;;;5.30;;
21657;SDS011;10990;48.174;9.782;2023-12-14T09:51:56;6.17;;;4.87;;
21657;SDS011;10990;48.174;9.782;2023-12-14T09:54:22;7.73;;;5.20;;
21657;SDS011;10990;48.174;9.782;2023-12-14T09:56:48;7.33;;;4.40;;
21657;SDS011;10990;48.174;9.782;2023-12-14T09:59:14;5.40;;;4.10;;
21657;SDS011;10990;48.174;9.782;2023-12-14T10:01:40;4.83;;;3.30;;
21657;SDS011;10990;48.174;9.782;2023-12-14T10:04:09;4.70;;;3.40;;
21657;SDS011;10990;48.174;9.782;2023-12-14T10:06:39;5.20;;;3.47;;
21657;SDS011;10990;48.174;9.782;2023-12-14T10:09:07;5.83;;;4.20;;
21657;SDS011;10990;48.174;9.782;2023-12-14T10:11:33;5.63;;;3.23;;
21657;SDS011;10990;48.174;9.782;2023-12-14T10:13:59;4.60;;;3.37;;
21657;SDS011;10990;48.174;9.782;2023-12-14T10:16:29;5.03;;;3.60;;
21657;SDS011;10990;48.174;9.782;2023-12-14T10:18:56;4.27;;;3.37;;
21657;SDS011;10990;48.174;9.782;2023-12-14T10:21:22;4.33;;;3.23;;
21657;SDS011;10990;48.174;9.782;2023-12-14T10:23:51;4.93;;;3.30;;
21657;SDS011;10990;48.174;9.782;2023-12-14T10:26:17;3.00;;;2.47;;
21657;SDS011;10990;48.174;9.782;2023-12-14T10:28:43;4.33;;;3.23;;
21657;SDS011;10990;48.174;9.782;2023-12-14T10:31:09;3.20;;;2.60;;
21657;SDS011;10990;48.174;9.782;2023-12-14T10:33:35;3.63;;;3.03;;
21657;SDS011;10990;48.174;9.782;2023-12-14T10:36:01;3.63;;;3.00;;
21657;SDS011;10990;48.174;9.782;2023-12-14T10:38:29;3.67;;;2.77;;
21657;SDS011;10990;48.174;9.782;2023-12-14T10:40:59;3.60;;;2.33;;
21657;SDS011;10990;48.174;9.782;2023-12-14T10:43:26;4.10;;;2.53;;
21657;SDS011;10990;48.174;9.782;2023-12-14T10:45:52;2.83;;;2.20;;
21657;SDS011;10990;48.174;9.782;2023-12-14T10:48:18;2.67;;;2.00;;
21657;SDS011;10990;48.174;9.782;2023-12-14T10:50:45;2.87;;;2.20;;
21657;SDS011;10990;48.174;9.782;2023-12-14T10:53:13;4.23;;;2.30;;
21657;SDS011;10990;48.174;9.782;2023-12-14T10:55:41;2.30;;;2.03;;
21657;SDS011;10990;48.174;9.782;2023-12-14T10:58:11;3.67;;;2.40;;
21657;SDS011;10990;48.174;9.782;2023-12-14T11:00:37;3.87;;;2.30;;
21657;SDS011;10990;48.174;9.782;2023-12-14T11:03:04;3.30;;;2.50;;
21657;SDS011;10990;48.174;9.782;2023-12-14T11:05:31;2.93;;;2.03;;
21657;SDS011;10990;48.174;9.782;2023-12-14T11:07:59;1.90;;;1.70;;
21657;SDS011;10990;48.174;9.782;2023-12-14T11:10:26;2.00;;;1.80;;
21657;SDS011;10990;48.174;9.782;2023-12-14T11:13:03;2.80;;;1.90;;
21657;SDS011;10990;48.174;9.782;2023-12-14T11:15:35;2.33;;;1.93;;
21657;SDS011;10990;48.174;9.782;2023-12-14T11:20:50;1.80;;;1.50;;
21657;SDS011;10990;48.174;9.782;2023-12-14T11:23:26;2.00;;;1.70;;
21657;SDS011;10990;48.174;9.782;2023-12-14T11:25:54;1.90;;;1.37;;
21657;SDS011;10990;48.174;9.782;2023-12-14T11:28:23;3.13;;;1.60;;
21657;SDS011;10990;48.174;9.782;2023-12-14T11:30:52;1.53;;;1.27;;
21657;SDS011;10990;48.174;9.782;2023-12-14T11:33:18;1.33;;;1.07;;
21657;SDS011;10990;48.174;9.782;2023-12-14T11:35:44;1.20;;;1.10;;
21657;SDS011;10990;48.174;9.782;2023-12-14T11:38:10;1.03;;;0.97;;
21657;SDS011;10990;48.174;9.782;2023-12-14T11:40:36;1.40;;;1.10;;
21657;SDS011;10990;48.174;9.782;2023-12-14T11:43:02;1.10;;;0.90;;
21657;SDS011;10990;48.174;9.782;2023-12-14T11:45:30;1.10;;;0.90;;
21657;SDS011;10990;48.174;9.782;2023-12-14T11:47:58;0.80;;;0.80;;
21657;SDS011;10990;48.174;9.782;2023-12-14T11:50:26;0.70;;;0.70;;
21657;SDS011;10990;48.174;9.782;2023-12-14T11:52:52;0.60;;;0.60;;
21657;SDS011;10990;48.174;9.782;2023-12-14T11:55:18;0.50;;;0.50;;
21657;SDS011;10990;48.174;9.782;2023-12-14T11:57:46;0.70;;;0.70;;
21657;SDS011;10990;48.174;9.782;2023-12-14T12:00:14;0.60;;;0.60;;
21657;SDS011;10990;48.174;9.782;2023-12-14T12:02:42;0.50;;;0.50;;
21657;SDS011;10990;48.174;9.782;2023-12-14T12:05:10;0.80;;;0.70;;
21657;SDS011;10990;48.174;9.782;2023-12-14T12:07:36;1.20;;;0.70;;
21657;SDS011;10990;48.174;9.782;2023-12-14T12:10:03;0.70;;;0.70;;
21657;SDS011;10990;48.174;9.782;2023-12-14T12:12:32;1.17;;;0.63;;
21657;SDS011;10990;48.174;9.782;2023-12-14T12:14:59;1.10;;;0.70;;
21657;SDS011;10990;48.174;9.782;2023-12-14T12:17:24;0.60;;;0.60;;
21657;SDS011;10990;48.174;9.782;2023-12-14T12:19:50;0.70;;;0.70;;
21657;SDS011;10990;48.174;9.782;2023-12-14T12:22:19;1.03;;;0.80;;
21657;SDS011;10990;48.174;9.782;2023-12-14T12:24:45;1.23;;;0.80;;
21657;SDS011;10990;48.174;9.782;2023-12-14T12:27:11;0.73;;;0.73;;
21657;SDS011;10990;48.174;9.782;2023-12-14T12:29:37;2.27;;;1.23;;
21657;SDS011;10990;48.174;9.782;2023-12-14T12:32:03;1.50;;;1.37;;
21657;SDS011;10990;48.174;9.782;2023-12-14T12:34:29;1.40;;;1.27;;
21657;SDS011;10990;48.174;9.782;2023-12-14T12:36:55;1.47;;;1.30;;
21657;SDS011;10990;48.174;9.782;2023-12-14T12:39:24;1.50;;;1.17;;
21657;SDS011;10990;48.174;9.782;2023-12-14T12:41:50;1.30;;;1.10;;
21657;SDS011;10990;48.174;9.782;2023-12-14T12:44:16;1.37;;;1.10;;
21657;SDS011;10990;48.174;9.782;2023-12-14T12:46:42;1.90;;;1.00;;
21657;SDS011;10990;48.174;9.782;2023-12-14T12:49:08;1.10;;;1.00;;
21657;SDS011;10990;48.174;9.782;2023-12-14T12:51:34;0.90;;;0.87;;
21657;SDS011;10990;48.174;9.782;2023-12-14T12:54:00;1.33;;;0.80;;
21657;SDS011;10990;48.174;9.782;2023-12-14T12:56:29;1.53;;;0.73;;
21657;SDS011;10990;48.174;9.782;2023-12-14T12:58:55;1.07;;;0.80;;
21657;SDS011;10990;48.174;9.782;2023-12-14T13:01:21;0.67;;;0.60;;
21657;SDS011;10990;48.174;9.782;2023-12-14T13:03:47;1.60;;;0.80;;
21657;SDS011;10990;48.174;9.782;2023-12-14T13:06:13;0.87;;;0.70;;
21657;SDS011;10990;48.174;9.782;2023-12-14T13:08:39;1.53;;;0.90;;
21657;SDS011;10990;48.174;9.782;2023-12-14T13:11:05;1.10;;;0.80;;
21657;SDS011;10990;48.174;9.782;2023-12-14T13:13:33;1.07;;;0.70;;
21657;SDS011;10990;48.174;9.782;2023-12-14T13:15:59;0.93;;;0.70;;
21657;SDS011;10990;48.174;9.782;2023-12-14T13:18:25;1.87;;;1.10;;
21657;SDS011;10990;48.174;9.782;2023-12-14T13:20:51;5.77;;;2.00;;
21657;SDS011;10990;48.174;9.782;2023-12-14T13:23:17;3.43;;;1.03;;
21657;SDS011;10990;48.174;9.782;2023-12-14T13:25:43;1.30;;;1.00;;
21657;SDS011;10990;48.174;9.782;2023-12-14T13:28:09;0.93;;;0.63;;
21657;SDS011;10990;48.174;9.782;2023-12-14T13:30:38;1.23;;;1.13;;
21657;SDS011;10990;48.174;9.782;2023-12-14T13:33:04;1.47;;;1.10;;
21657;SDS011;10990;48.174;9.782;2023-12-14T13:35:30;2.10;;;1.20;;
21657;SDS011;10990;48.174;9.782;2023-12-14T13:37:56;1.73;;;1.30;;
21657;SDS011;10990;48.174;9.782;2023-12-14T13:40:22;2.43;;;1.43;;
21657;SDS011;10990;48.174;9.782;2023-12-14T13:42:48;1.13;;;1.07;;
21657;SDS011;10990;48.174;9.782;2023-12-14T13:45:14;1.20;;;0.73;;
21657;SDS011;10990;48.174;9.782;2023-12-14T13:47:43;1.13;;;0.80;;
21657;SDS011;10990;48.174;9.782;2023-12-14T13:50:09;1.40;;;0.80;;
21657;SDS011;10990;48.174;9.782;2023-12-14T13:52:35;1.27;;;0.80;;
21657;SDS011;10990;48.174;9.782;2023-12-14T13:55:01;1.00;;;0.60;;
21657;SDS011;10990;48.174;9.782;2023-12-14T13:57:27;1.17;;;0.70;;
21657;SDS011;10990;48.174;9.782;2023-12-14T13:59:53;0.50;;;0.50;;
21657;SDS011;10990;48.174;9.782;2023-12-14T14:02:19;3.03;;;0.70;;
21657;SDS011;10990;48.174;9.782;2023-12-14T14:04:48;0.83;;;0.60;;
21657;SDS011;10990;48.174;9.782;2023-12-14T14:07:14;1.40;;;0.50;;
21657;SDS011;10990;48.174;9.782;2023-12-14T14:09:40;0.53;;;0.50;;
21657;SDS011;10990;48.174;9.782;2023-12-14T14:12:06;0.93;;;0.60;;
21657;SDS011;10990;48.174;9.782;2023-12-14T14:14:33;1.77;;;1.00;;
21657;SDS011;10990;48.174;9.782;2023-12-14T14:16:59;1.03;;;0.90;;
21657;SDS011;10990;48.174;9.782;2023-12-14T14:19:25;1.00;;;1.00;;
21657;SDS011;10990;48.174;9.782;2023-12-14T14:21:53;0.90;;;0.90;;
21657;SDS011;10990;48.174;9.782;2023-12-14T14:24:19;1.07;;;0.80;;
21657;SDS011;10990;48.174;9.782;2023-12-14T14:26:45;1.37;;;1.10;;
21657;SDS011;10990;48.174;9.782;2023-12-14T14:29:11;1.37;;;1.00;;
21657;SDS011;10990;48.174;9.782;2023-12-14T14:31:38;1.20;;;1.10;;
21657;SDS011;10990;48.174;9.782;2023-12-14T14:34:04;1.57;;;1.00;;
21657;SDS011;10990;48.174;9.782;2023-12-14T14:36:30;2.10;;;1.07;;
21657;SDS011;10990;48.174;9.782;2023-12-14T14:38:58;1.80;;;1.00;;
21657;SDS011;10990;48.174;9.782;2023-12-14T14:41:24;1.93;;;1.10;;